createdAt,value
2023-05-18T00:00:00.465Z,971.17
2023-05-18T00:02:31.034Z,1060.57
2023-05-18T00:05:02.899Z,931.20
2023-05-18T00:07:34.432Z,1076.10
2023-05-18T00:10:04.604Z,940.65
2023-05-18T00:12:34.720Z,880.03
2023-05-18T00:15:09.302Z,1057.53
2023-05-18T00:17:39.394Z,863.92
2023-05-18T00:20:10.559Z,1040.97
2023-05-18T00:22:43.020Z,998.03
2023-05-18T00:25:13.128Z,1043.93
2023-05-18T00:27:43.168Z,1048.70
2023-05-18T00:30:17.239Z,1072.72
2023-05-18T00:32:47.411Z,1056.53
2023-05-18T00:35:17.509Z,1099.40
2023-05-18T00:37:47.555Z,1179.68
2023-05-18T00:40:17.684Z,1133.03
2023-05-18T00:42:47.739Z,1095.18
2023-05-18T00:45:21.956Z,1159.28
2023-05-18T00:47:52.083Z,977.25
2023-05-18T00:50:22.410Z,1316.30
2023-05-18T00:52:52.650Z,1259.47
2023-05-18T00:55:22.979Z,1310.18
2023-05-18T00:57:56.620Z,1253.15
2023-05-18T01:00:29.843Z,1339.45
2023-05-18T01:03:00.553Z,1337.90
2023-05-18T01:05:30.948Z,1341.18
2023-05-18T01:08:03.257Z,1212.50
2023-05-18T01:10:36.473Z,1265.07
2023-05-18T01:13:12.920Z,1382.47
2023-05-18T01:15:52.852Z,1222.35
2023-05-18T01:18:29.357Z,1383.57
2023-05-18T01:21:04.891Z,1138.50
2023-05-18T01:24:19.387Z,1206.15
2023-05-18T01:26:57.739Z,1325.90
2023-05-18T01:29:29.450Z,1225.35
2023-05-18T01:32:00.255Z,1267.43
2023-05-18T01:34:30.682Z,1252.95
2023-05-18T01:37:00.886Z,1260.32
2023-05-18T01:39:31.070Z,1380.28
2023-05-18T01:42:11.229Z,1263.32
2023-05-18T01:44:50.114Z,1387.85
2023-05-18T01:47:21.453Z,1381.47
2023-05-18T01:49:59.234Z,1232.07
2023-05-18T01:52:37.037Z,1323.88
2023-05-18T01:55:09.610Z,1508.05
2023-05-18T01:57:45.903Z,1336.78
2023-05-18T02:00:17.776Z,1241.57
2023-05-18T02:02:48.179Z,1353.35
2023-05-18T02:05:18.432Z,1428.07
2023-05-18T02:07:48.499Z,1345.60
2023-05-18T02:10:18.741Z,1345.82
2023-05-18T02:12:53.034Z,1395.72
2023-05-18T02:15:23.073Z,1151.80
2023-05-18T02:17:58.465Z,1404.53
2023-05-18T02:20:32.794Z,1539.30
2023-05-18T02:23:03.166Z,1154.78
2023-05-18T02:25:33.353Z,1430.40
2023-05-18T02:28:06.340Z,1526.72
2023-05-18T02:30:36.449Z,1519.05
2023-05-18T02:33:09.302Z,1416.18
2023-05-18T02:35:41.095Z,1434.15
2023-05-18T02:38:11.197Z,1554.85
2023-05-18T02:40:41.354Z,1525.05
2023-05-18T02:43:14.070Z,1252.25
2023-05-18T02:45:44.174Z,1517.38
2023-05-18T02:48:14.299Z,1457.00
2023-05-18T02:50:46.962Z,1353.30
2023-05-18T02:53:17.111Z,1497.30
2023-05-18T02:55:47.187Z,1461.28
2023-05-18T02:58:20.679Z,1329.32
2023-05-18T03:00:53.152Z,1417.80
2023-05-18T03:03:24.030Z,1559.03
2023-05-18T03:05:55.686Z,1368.03
2023-05-18T03:08:27.143Z,1345.05
2023-05-18T03:10:57.558Z,1514.63
2023-05-18T03:13:30.223Z,1391.90
2023-05-18T03:16:00.309Z,1565.40
2023-05-18T03:18:30.362Z,1379.65
2023-05-18T03:21:02.305Z,1570.20
2023-05-18T03:23:32.865Z,1639.95
2023-05-18T03:26:03.048Z,1426.55
2023-05-18T03:28:35.757Z,1487.03
2023-05-18T03:31:06.367Z,1429.38
2023-05-18T03:33:37.007Z,1467.93
2023-05-18T03:36:09.004Z,1519.82
2023-05-18T03:38:39.100Z,1504.53
2023-05-18T03:41:09.238Z,1624.15
2023-05-18T03:43:41.943Z,1518.38
2023-05-18T03:46:12.024Z,1580.35
2023-05-18T03:48:42.094Z,1500.95
2023-05-18T03:51:12.517Z,1541.65
2023-05-18T03:53:42.567Z,1645.47
2023-05-18T03:56:13.553Z,1476.35
2023-05-18T03:58:46.388Z,1495.95
2023-05-18T04:01:19.018Z,1642.43
2023-05-18T04:03:51.163Z,1641.80
2023-05-18T04:06:22.852Z,1716.93
2023-05-18T04:08:53.155Z,1613.40
2023-05-18T04:11:23.259Z,1890.43
2023-05-18T04:13:58.087Z,1809.35
2023-05-18T04:18:58.833Z,1752.32
2023-05-18T04:21:34.064Z,1819.03
2023-05-18T04:24:07.212Z,1752.60
2023-05-18T04:26:38.852Z,1865.82
2023-05-18T04:29:13.619Z,1725.97
2023-05-18T04:34:18.002Z,1784.65
2023-05-18T04:36:48.352Z,1870.85
2023-05-18T04:39:18.504Z,1783.70
2023-05-18T04:41:48.738Z,1733.70
2023-05-18T04:44:21.452Z,1584.07
2023-05-18T04:46:52.823Z,1491.47
2023-05-18T04:49:26.374Z,1671.57
2023-05-18T04:51:59.631Z,1436.70
2023-05-18T04:54:32.089Z,1381.10
2023-05-18T04:57:03.740Z,1576.75
2023-05-18T04:59:37.238Z,1163.25
2023-05-18T05:02:08.145Z,1209.05
2023-05-18T05:04:38.296Z,1001.08
2023-05-18T05:07:08.794Z,246.02
2023-05-18T05:09:38.936Z,843.42
2023-05-18T05:12:10.340Z,710.55
2023-05-18T05:14:42.986Z,860.53
2023-05-18T05:17:13.081Z,45.42
2023-05-18T05:19:43.218Z,504.75
2023-05-18T05:22:13.310Z,391.08
2023-05-18T05:24:43.387Z,12.57
2023-05-18T05:27:13.477Z,300.95
2023-05-18T05:29:48.370Z,32.25
2023-05-18T05:32:18.492Z,336.55
2023-05-18T05:34:50.549Z,113.70
2023-05-18T05:37:21.681Z,33.88
2023-05-18T05:39:51.938Z,38.35
2023-05-18T05:42:22.164Z,241.95
2023-05-18T05:44:54.855Z,129.65
2023-05-18T05:47:25.108Z,12.98
2023-05-18T05:49:55.253Z,12.35
2023-05-18T05:52:25.374Z,12.52
2023-05-18T05:54:55.497Z,11.13
2023-05-18T05:57:25.989Z,11.57
2023-05-18T05:59:58.697Z,11.18
2023-05-18T06:02:28.922Z,15.27
2023-05-18T06:04:59.138Z,11.07
2023-05-18T06:07:30.326Z,9.13
2023-05-18T06:10:00.421Z,8.68
2023-05-18T06:12:30.538Z,11.95
2023-05-18T06:15:03.237Z,15.18
2023-05-18T06:17:33.934Z,9.35
2023-05-18T06:20:04.813Z,16.98
2023-05-18T06:22:35.081Z,8.75
2023-05-18T06:25:05.265Z,14.05
2023-05-18T06:27:35.826Z,11.95
2023-05-18T06:30:11.292Z,8.80
2023-05-18T06:32:41.432Z,11.68
2023-05-18T06:35:13.148Z,9.20
2023-05-18T06:37:44.782Z,14.38
2023-05-18T06:40:16.870Z,10.32
2023-05-18T06:42:47.079Z,15.55
2023-05-18T06:45:20.087Z,11.98
2023-05-18T06:47:50.281Z,7.55
2023-05-18T06:50:20.525Z,14.18
2023-05-18T06:52:51.691Z,13.15
2023-05-18T06:55:22.242Z,10.30
2023-05-18T06:57:53.141Z,11.68
2023-05-18T07:00:26.261Z,7.18
2023-05-18T07:02:56.506Z,10.82
2023-05-18T07:05:27.481Z,15.80
2023-05-18T07:07:57.664Z,9.65
2023-05-18T07:10:29.073Z,10.95
2023-05-18T07:12:59.502Z,13.45
2023-05-18T07:15:32.548Z,12.80
2023-05-18T07:18:03.793Z,10.52
2023-05-18T07:20:33.984Z,8.32
2023-05-18T07:23:04.088Z,11.20
2023-05-18T07:25:34.180Z,12.18
2023-05-18T07:28:04.247Z,10.48
2023-05-18T07:30:37.158Z,9.55
2023-05-18T07:33:07.735Z,12.60
2023-05-18T07:35:39.141Z,8.85
2023-05-18T07:38:09.249Z,5.35
2023-05-18T07:40:39.305Z,14.23
2023-05-18T07:43:09.372Z,8.65
2023-05-18T07:45:42.066Z,3.78
2023-05-18T07:48:12.229Z,4.88
2023-05-18T07:50:42.313Z,4.45
2023-05-18T07:53:12.394Z,8.18
2023-05-18T07:55:42.544Z,9.65
2023-05-18T07:58:13.530Z,12.32
2023-05-18T08:00:46.398Z,8.73
2023-05-18T08:03:16.591Z,8.60
2023-05-18T08:05:46.698Z,7.50
2023-05-18T08:08:18.901Z,7.63
2023-05-18T08:10:49.022Z,9.70
2023-05-18T08:13:19.115Z,6.50
2023-05-18T08:16:02.914Z,15.45
2023-05-18T08:18:33.669Z,7.65
2023-05-18T08:21:04.428Z,9.20
2023-05-18T08:23:34.525Z,7.88
2023-05-18T08:26:05.034Z,7.63
2023-05-18T08:28:35.398Z,5.05
2023-05-18T08:31:08.281Z,9.90
2023-05-18T08:33:38.422Z,10.15
2023-05-18T08:36:09.520Z,8.88
2023-05-18T08:38:39.838Z,6.35
2023-05-18T08:41:18.564Z,7.57
2023-05-18T08:43:54.405Z,6.13
2023-05-18T08:46:33.495Z,10.88
2023-05-18T08:49:06.109Z,13.07
2023-05-18T08:51:38.912Z,12.35
2023-05-18T08:54:09.376Z,7.25
2023-05-18T08:56:41.858Z,8.32
2023-05-18T08:59:13.939Z,7.30
2023-05-18T09:01:46.789Z,9.30
2023-05-18T09:04:17.899Z,12.35
2023-05-18T09:06:49.712Z,5.05
2023-05-18T09:09:21.685Z,11.95
2023-05-18T09:11:52.681Z,6.43
2023-05-18T09:14:26.010Z,6.07
2023-05-18T09:16:59.155Z,8.63
2023-05-18T09:19:29.642Z,8.57
2023-05-18T09:21:59.713Z,7.60
2023-05-18T09:24:30.233Z,7.50
2023-05-18T09:27:00.503Z,7.50
2023-05-18T09:29:32.280Z,7.03
2023-05-18T09:32:14.076Z,5.80
2023-05-18T09:34:46.327Z,7.00
2023-05-18T09:37:20.233Z,7.78
2023-05-18T09:40:02.660Z,6.40
2023-05-18T09:42:39.973Z,9.77
2023-05-18T09:45:20.893Z,7.05
2023-05-18T09:47:54.043Z,4.45
2023-05-18T09:50:25.418Z,5.70
2023-05-18T09:52:55.565Z,6.65
2023-05-18T09:55:25.822Z,4.57
2023-05-18T09:57:56.205Z,8.98
2023-05-18T10:00:26.941Z,5.85
2023-05-18T10:03:01.301Z,11.48
2023-05-18T10:05:36.021Z,6.93
2023-05-18T10:08:06.670Z,4.07
2023-05-18T10:10:44.684Z,4.68
2023-05-18T10:13:21.114Z,6.22
2023-05-18T10:15:54.394Z,6.47
2023-05-18T10:18:29.230Z,9.35
2023-05-18T10:21:02.050Z,5.30
2023-05-18T10:23:35.795Z,5.50
2023-05-18T10:26:10.436Z,6.60
2023-05-18T10:31:13.008Z,6.35
2023-05-18T10:33:47.684Z,8.85
2023-05-18T10:38:49.892Z,5.95
2023-05-18T10:41:24.501Z,5.57
2023-05-18T10:46:32.478Z,10.77
2023-05-18T10:49:13.419Z,7.78
2023-05-18T10:51:46.595Z,8.02
2023-05-18T10:54:17.842Z,10.30
2023-05-18T10:56:51.406Z,5.65
2023-05-18T10:59:23.454Z,9.07
2023-05-18T11:01:56.648Z,5.55
2023-05-18T11:04:30.434Z,3.97
2023-05-18T11:07:04.445Z,8.33
2023-05-18T11:09:34.909Z,6.10
2023-05-18T11:12:05.389Z,7.22
2023-05-18T11:14:36.252Z,6.13
2023-05-18T11:17:20.786Z,6.78
2023-05-18T11:20:23.104Z,6.22
2023-05-18T11:22:55.512Z,5.07
2023-05-18T11:25:45.853Z,4.72
2023-05-18T11:28:16.668Z,8.90
2023-05-18T11:30:54.245Z,2.70
2023-05-18T11:33:31.002Z,2.88
2023-05-18T11:36:11.571Z,6.47
2023-05-18T11:38:57.265Z,6.13
2023-05-18T11:41:42.688Z,3.40
2023-05-18T11:44:20.549Z,8.23
2023-05-18T11:46:59.405Z,2.78
2023-05-18T11:49:33.764Z,4.38
2023-05-18T11:52:20.784Z,1.70
2023-05-18T11:54:54.635Z,9.68
2023-05-18T11:57:28.490Z,4.03
2023-05-18T12:00:00.303Z,4.18
2023-05-18T12:02:35.090Z,10.75
2023-05-18T12:05:10.492Z,6.45
2023-05-18T12:07:45.174Z,3.20
2023-05-18T12:10:17.742Z,4.40
2023-05-18T12:12:52.400Z,3.00
2023-05-18T12:17:55.764Z,6.00
2023-05-18T12:20:28.522Z,3.70
2023-05-18T12:23:01.861Z,8.25
2023-05-18T12:25:32.160Z,3.70
2023-05-18T12:28:05.047Z,6.43
2023-05-18T12:30:38.545Z,3.80
2023-05-18T12:33:09.100Z,6.05
2023-05-18T12:35:39.308Z,3.95
2023-05-18T12:38:11.972Z,7.57
2023-05-18T12:40:48.978Z,4.93
2023-05-18T12:43:19.185Z,5.05
2023-05-18T12:45:50.321Z,9.10
2023-05-18T12:48:21.103Z,4.35
2023-05-18T12:50:52.344Z,6.57
2023-05-18T12:53:25.163Z,4.97
2023-05-18T12:56:01.913Z,7.53
2023-05-18T12:58:33.204Z,6.53
2023-05-18T13:01:10.903Z,3.38
2023-05-18T13:03:43.590Z,11.00
2023-05-18T13:06:13.754Z,7.07
2023-05-18T13:08:46.512Z,5.90
2023-05-18T13:11:17.982Z,7.93
2023-05-18T13:14:04.335Z,5.10
2023-05-18T13:16:36.671Z,6.20
2023-05-18T13:19:09.352Z,6.75
2023-05-18T13:21:40.244Z,6.75
2023-05-18T13:24:13.081Z,6.55
2023-05-18T13:26:43.788Z,4.15
2023-05-18T13:29:13.871Z,4.68
2023-05-18T13:31:44.011Z,8.73
2023-05-18T13:34:14.337Z,5.43
2023-05-18T13:36:44.447Z,6.25
2023-05-18T13:39:17.968Z,4.47
2023-05-18T13:41:48.009Z,6.22
2023-05-18T13:44:18.440Z,6.65
2023-05-18T13:46:48.659Z,3.28
2023-05-18T13:49:18.710Z,4.72
2023-05-18T13:51:48.962Z,3.85
2023-05-18T13:54:21.653Z,7.93
2023-05-18T13:56:51.840Z,9.63
2023-05-18T13:59:22.707Z,8.38
2023-05-18T14:01:52.836Z,6.32
2023-05-18T14:04:23.041Z,5.60
2023-05-18T14:06:54.468Z,3.97
2023-05-18T14:09:28.435Z,5.13
2023-05-18T14:12:00.216Z,3.92
2023-05-18T14:14:30.385Z,6.22
2023-05-18T14:17:00.714Z,6.45
2023-05-18T14:19:30.828Z,5.07
2023-05-18T14:22:00.919Z,5.22
2023-05-18T14:24:33.652Z,5.55
2023-05-18T14:27:03.774Z,6.65
2023-05-18T14:29:36.044Z,8.32
2023-05-18T14:32:06.435Z,5.35
2023-05-18T14:34:36.856Z,7.70
2023-05-18T14:37:07.589Z,6.15
2023-05-18T14:39:40.318Z,4.85
2023-05-18T14:42:11.041Z,4.00
2023-05-18T14:44:41.128Z,5.13
2023-05-18T14:47:11.378Z,8.85
2023-05-18T14:49:41.794Z,3.65
2023-05-18T14:52:12.210Z,6.60
2023-05-18T14:54:45.178Z,3.13
2023-05-18T14:57:15.213Z,3.95
2023-05-18T14:59:45.716Z,6.38
2023-05-18T15:02:16.360Z,6.68
2023-05-18T15:04:46.451Z,4.10
2023-05-18T15:07:16.811Z,5.38
2023-05-18T15:09:49.486Z,6.55
2023-05-18T15:12:21.491Z,6.90
2023-05-18T15:14:51.571Z,5.55
2023-05-18T15:17:21.646Z,8.70
2023-05-18T15:19:51.801Z,6.95
2023-05-18T15:22:23.292Z,6.35
2023-05-18T15:24:55.941Z,4.95
2023-05-18T15:27:26.153Z,11.18
2023-05-18T15:29:56.224Z,2.97
2023-05-18T15:32:28.396Z,3.65
2023-05-18T15:34:59.866Z,9.50
2023-05-18T15:37:29.952Z,2.58
2023-05-18T15:40:02.715Z,7.30
2023-05-18T15:42:33.890Z,8.57
2023-05-18T15:45:03.964Z,7.88
2023-05-18T15:47:34.263Z,5.43
2023-05-18T15:50:04.447Z,5.45
2023-05-18T15:52:34.581Z,5.00
2023-05-18T15:55:08.538Z,4.10
2023-05-18T15:57:38.719Z,4.22
2023-05-18T16:00:11.151Z,4.40
2023-05-18T16:02:41.338Z,4.68
2023-05-18T16:05:12.349Z,5.70
2023-05-18T16:07:42.523Z,9.88
2023-05-18T16:10:15.619Z,2.75
2023-05-18T16:12:45.731Z,5.00
2023-05-18T16:15:15.785Z,4.50
2023-05-18T16:17:45.910Z,3.58
2023-05-18T16:20:17.897Z,8.32
2023-05-18T16:22:48.224Z,5.80
2023-05-18T16:25:20.942Z,7.40
2023-05-18T16:27:51.062Z,3.35
2023-05-18T16:30:21.431Z,6.95
2023-05-18T16:32:51.527Z,4.53
2023-05-18T16:35:21.833Z,5.05
2023-05-18T16:37:52.009Z,3.35
2023-05-18T16:40:24.802Z,4.03
2023-05-18T16:42:54.902Z,5.20
2023-05-18T16:45:27.003Z,4.15
2023-05-18T16:47:57.344Z,6.30
2023-05-18T16:50:27.996Z,4.75
2023-05-18T16:52:58.060Z,4.97
2023-05-18T16:55:31.047Z,6.13
2023-05-18T16:58:02.380Z,6.22
2023-05-18T17:00:32.886Z,5.47
2023-05-18T17:03:03.365Z,5.18
2023-05-18T17:05:34.764Z,6.30
2023-05-18T17:08:04.971Z,6.07
2023-05-18T17:10:38.213Z,8.68
2023-05-18T17:13:08.485Z,5.53
2023-05-18T17:15:38.990Z,5.70
2023-05-18T17:18:09.149Z,6.50
2023-05-18T17:20:39.362Z,6.80
2023-05-18T17:23:12.503Z,8.23
2023-05-18T17:25:45.436Z,14.30
2023-05-18T17:28:19.013Z,11.30
2023-05-18T17:30:49.120Z,12.60
2023-05-18T17:33:19.202Z,10.02
2023-05-18T17:35:49.273Z,8.00
2023-05-18T17:38:21.817Z,7.97
2023-05-18T17:40:54.530Z,13.70
2023-05-18T17:43:24.647Z,10.57
2023-05-18T17:45:54.783Z,12.13
2023-05-18T17:48:24.918Z,15.32
2023-05-18T17:50:55.025Z,12.82
2023-05-18T17:53:25.125Z,14.85
2023-05-18T17:55:58.019Z,14.05
2023-05-18T17:58:28.169Z,11.27
2023-05-18T18:00:58.284Z,8.80
2023-05-18T18:03:28.605Z,10.93
2023-05-18T18:05:58.734Z,9.35
2023-05-18T18:08:29.503Z,8.02
2023-05-18T18:11:02.289Z,6.30
2023-05-18T18:13:32.382Z,8.73
2023-05-18T18:16:03.382Z,4.93
2023-05-18T18:18:36.269Z,7.65
2023-05-18T18:21:06.616Z,11.23
2023-05-18T18:23:37.589Z,12.57
2023-05-18T18:26:11.123Z,8.80
2023-05-18T18:28:41.809Z,11.10
2023-05-18T18:31:12.075Z,10.77
2023-05-18T18:33:44.084Z,7.03
2023-05-18T18:36:14.176Z,9.55
2023-05-18T18:38:44.334Z,7.93
2023-05-18T18:41:17.587Z,9.57
2023-05-18T18:43:47.837Z,9.30
2023-05-18T18:46:18.152Z,7.50
2023-05-18T18:48:48.263Z,10.48
2023-05-18T18:51:18.567Z,10.18
2023-05-18T18:53:48.651Z,11.07
2023-05-18T18:56:24.234Z,11.73
2023-05-18T18:58:54.560Z,11.85
2023-05-18T19:01:24.680Z,13.93
2023-05-18T19:03:55.771Z,10.63
2023-05-18T19:06:26.323Z,10.63
2023-05-18T19:08:56.410Z,11.43
2023-05-18T19:11:29.168Z,16.50
2023-05-18T19:13:59.367Z,16.67
2023-05-18T19:16:29.664Z,11.63
2023-05-18T19:18:59.856Z,14.60
2023-05-18T19:21:30.061Z,14.48
2023-05-18T19:24:00.160Z,11.55
2023-05-18T19:26:33.403Z,9.52
2023-05-18T19:29:04.371Z,12.27
2023-05-18T19:31:34.744Z,13.75
2023-05-18T19:34:04.857Z,12.95
2023-05-18T19:36:35.939Z,15.13
2023-05-18T19:39:06.103Z,16.38
2023-05-18T19:41:40.006Z,23.45
2023-05-18T19:44:10.053Z,23.23
2023-05-18T19:46:40.696Z,11.07
2023-05-18T19:49:10.981Z,9.52
2023-05-18T19:51:41.465Z,8.30
2023-05-18T19:54:12.098Z,9.50
2023-05-18T19:56:44.785Z,10.57
2023-05-18T19:59:14.873Z,7.95
2023-05-18T20:01:45.018Z,12.38
2023-05-18T20:04:15.448Z,7.30
2023-05-18T20:06:45.598Z,10.48
2023-05-18T20:09:15.640Z,9.52
2023-05-18T20:11:48.301Z,9.63
2023-05-18T20:14:18.387Z,10.18
2023-05-18T20:16:48.879Z,6.90
2023-05-18T20:19:19.258Z,8.32
2023-05-18T20:21:50.499Z,9.23
2023-05-18T20:24:20.592Z,8.45
2023-05-18T20:26:56.162Z,9.40
2023-05-18T20:29:26.425Z,11.23
2023-05-18T20:31:57.290Z,13.73
2023-05-18T20:34:27.482Z,13.13
2023-05-18T20:36:57.606Z,10.38
2023-05-18T20:39:28.892Z,10.10
2023-05-18T20:42:03.318Z,13.27
2023-05-18T20:44:35.086Z,12.45
2023-05-18T20:47:05.161Z,12.25
2023-05-18T20:49:35.253Z,9.88
2023-05-18T20:52:05.352Z,10.55
2023-05-18T20:54:35.402Z,12.15
2023-05-18T20:57:08.335Z,10.40
2023-05-18T20:59:38.449Z,9.68
2023-05-18T21:02:08.846Z,11.55
2023-05-18T21:04:38.964Z,10.70
2023-05-18T21:07:10.101Z,8.18
2023-05-18T21:09:40.167Z,11.63
2023-05-18T21:12:13.077Z,10.48
2023-05-18T21:14:43.128Z,10.52
2023-05-18T21:17:13.227Z,9.95
2023-05-18T21:19:43.363Z,7.53
2023-05-18T21:22:13.997Z,8.70
2023-05-18T21:24:44.089Z,10.13
2023-05-18T21:27:16.895Z,13.30
2023-05-18T21:29:46.944Z,8.13
2023-05-18T21:32:17.199Z,8.85
2023-05-18T21:34:47.391Z,9.55
2023-05-18T21:37:17.750Z,8.10
2023-05-18T21:39:47.847Z,6.57
2023-05-18T21:42:20.761Z,10.60
2023-05-18T21:44:50.860Z,8.85
2023-05-18T21:47:20.975Z,10.82
2023-05-18T21:49:51.055Z,12.45
2023-05-18T21:52:21.204Z,9.02
2023-05-18T21:54:51.257Z,15.73
2023-05-18T21:57:24.788Z,26.08
2023-05-18T21:59:55.511Z,35.42
2023-05-18T22:02:25.746Z,35.08
2023-05-18T22:04:55.843Z,175.93
2023-05-18T22:07:26.028Z,133.43
2023-05-18T22:09:56.278Z,466.65
2023-05-18T22:12:29.069Z,316.20
2023-05-18T22:14:59.174Z,415.45
2023-05-18T22:17:29.490Z,507.38
2023-05-18T22:19:59.588Z,528.97
2023-05-18T22:22:30.805Z,430.40
2023-05-18T22:25:01.315Z,287.60
2023-05-18T22:27:36.650Z,439.92
2023-05-18T22:30:08.063Z,278.17
2023-05-18T22:32:38.408Z,657.42
2023-05-18T22:35:11.102Z,678.78
2023-05-18T22:37:41.171Z,338.02
2023-05-18T22:40:13.393Z,832.00
2023-05-18T22:42:46.104Z,599.03
2023-05-18T22:45:16.169Z,785.20
2023-05-18T22:47:46.949Z,754.75
2023-05-18T22:50:17.420Z,970.80
2023-05-18T22:52:47.849Z,596.30
2023-05-18T22:55:18.187Z,929.40
2023-05-18T22:57:50.901Z,710.00
2023-05-18T23:00:21.395Z,923.17
2023-05-18T23:02:53.199Z,935.75
2023-05-18T23:05:23.595Z,881.83
2023-05-18T23:07:58.349Z,922.13
2023-05-18T23:10:29.075Z,834.45
2023-05-18T23:13:02.408Z,1135.03
2023-05-18T23:15:33.360Z,915.03
2023-05-18T23:18:03.524Z,866.03
2023-05-18T23:20:34.786Z,998.88
2023-05-18T23:23:04.996Z,1075.68
2023-05-18T23:25:35.102Z,999.75
2023-05-18T23:28:08.226Z,1154.60
2023-05-18T23:30:38.276Z,1069.97
2023-05-18T23:33:10.087Z,1274.80
2023-05-18T23:35:41.597Z,1052.65
2023-05-18T23:38:13.569Z,1166.60
2023-05-18T23:40:43.849Z,1048.75
2023-05-18T23:43:17.581Z,1097.82
2023-05-18T23:45:48.390Z,1081.70
2023-05-18T23:48:19.457Z,1075.03
2023-05-18T23:50:49.966Z,1145.78
2023-05-18T23:53:21.796Z,1040.28
2023-05-18T23:55:52.934Z,1107.43
2023-05-18T23:58:30.073Z,1079.60
